Time;durP1;ratioP1;P1;durP2;ratioP2;P2;SDS_P1;SDS_P2;PMS_P1;PMS_P2;Temp;Humidity;BMP_temperature;BMP_pressure;BME280_temperature;BME280_humidity;BME280_pressure;Samples;Min_cycle;Max_cycle;Signal;HPM_P1;HPM_P2
2022/09/28 00:02:41;;;;;;;13.63;10.20;;;8.90;99.90;;;;;;2615671;54;20127;-73
2022/09/28 00:08:29;;;;;;;17.55;10.43;;;8.90;99.90;;;;;;2615512;54;20158;-73
2022/09/28 00:14:16;;;;;;;13.67;9.83;;;9.00;99.90;;;;;;2615682;54;20163;-73
2022/09/28 00:20:04;;;;;;;17.60;9.50;;;9.00;99.90;;;;;;2615800;46;20400;-73
2022/09/28 00:30:21;;;;;;;10.73;8.80;;;8.80;99.90;;;;;;2614182;54;20495;-73
2022/09/28 00:36:08;;;;;;;13.20;9.67;;;8.60;99.90;;;;;;2613564;54;20974;-72
2022/09/28 00:41:56;;;;;;;13.65;9.55;;;8.60;99.90;;;;;;2613646;54;20130;-74
2022/09/28 00:47:48;;;;;;;12.90;8.80;;;8.50;99.90;;;;;;2613781;54;20437;-73
2022/09/28 00:53:39;;;;;;;13.10;7.67;;;8.50;99.90;;;;;;2614141;54;20511;-71
2022/09/28 00:59:27;;;;;;;14.47;8.53;;;8.50;99.90;;;;;;2614267;54;20374;-73
2022/09/28 01:05:16;;;;;;;11.93;8.45;;;8.40;99.90;;;;;;2615506;54;20644;-75
2022/09/28 01:11:04;;;;;;;10.80;8.43;;;8.50;99.90;;;;;;2615691;54;20389;-77
2022/09/28 01:27:31;;;;;;;12.55;9.43;;;8.50;99.90;;;;;;2615603;54;20399;-76
2022/09/28 01:33:27;;;;;;;15.67;9.57;;;8.50;99.90;;;;;;2615531;54;20409;-75
2022/09/28 01:39:20;;;;;;;17.03;10.90;;;8.40;99.90;;;;;;2615765;54;20533;-76
2022/09/28 02:04:23;;;;;;;16.07;12.37;;;8.30;99.90;;;;;;2615348;54;20218;-73
2022/09/28 02:10:21;;;;;;;16.40;13.00;;;8.30;99.90;;;;;;2615424;54;20411;-73
2022/09/28 02:22:33;;;;;;;18.83;13.13;;;8.30;99.90;;;;;;2615334;39;20705;-72
2022/09/28 02:28:21;;;;;;;22.67;12.60;;;8.40;99.90;;;;;;2615849;39;20579;-74
2022/09/28 02:31:33;;;;;;;18.20;13.37;;;8.40;99.90;;;;;;2615990;54;20424;-74
2022/09/28 02:37:21;;;;;;;22.33;16.10;;;8.40;99.90;;;;;;2615965;54;20399;-73
2022/09/28 02:56:23;;;;;;;30.00;18.97;;;8.40;99.90;;;;;;2616610;39;20877;-71
2022/09/28 03:02:19;;;;;;;29.37;20.30;;;8.40;99.90;;;;;;2615713;54;20386;-72
2022/09/28 03:14:37;;;;;;;32.17;24.00;;;8.40;99.90;;;;;;2613995;54;21476;-70
2022/09/28 03:20:26;;;;;;;36.57;24.80;;;8.40;99.90;;;;;;2614623;54;20476;-69
2022/09/28 03:26:15;;;;;;;33.80;23.45;;;8.30;99.90;;;;;;2614102;54;20425;-69
2022/09/28 03:32:02;;;;;;;33.03;23.83;;;8.20;99.90;;;;;;2614261;46;20362;-70
2022/09/28 03:37:53;;;;;;;34.90;24.50;;;8.20;99.90;;;;;;2614254;54;20167;-70
2022/09/28 03:43:40;;;;;;;39.93;26.20;;;8.10;99.90;;;;;;2613882;54;20416;-70
2022/09/28 03:49:27;;;;;;;41.60;25.40;;;8.10;99.90;;;;;;2616002;54;20647;-70
2022/09/28 03:55:15;;;;;;;40.67;25.67;;;8.10;99.90;;;;;;2615916;54;20228;-70
2022/09/28 04:01:05;;;;;;;40.20;27.03;;;8.10;99.90;;;;;;2615271;54;20155;-70
2022/09/28 04:06:53;;;;;;;43.23;27.13;;;8.20;99.90;;;;;;2614928;54;20127;-69
2022/09/28 04:12:40;;;;;;;42.45;28.80;;;8.20;99.90;;;;;;2615499;54;20130;-70
2022/09/28 04:18:28;;;;;;;49.83;29.70;;;8.20;99.90;;;;;;2615102;54;20179;-70
2022/09/28 04:24:17;;;;;;;48.80;28.57;;;8.20;99.90;;;;;;2614917;54;20164;-69
2022/09/28 04:29:47;;;;;;;46.57;28.60;;;8.20;99.90;;;;;;2615610;54;20440;-68
2022/09/28 04:35:35;;;;;;;43.85;29.83;;;8.20;99.90;;;;;;2615559;54;20142;-70
2022/09/28 04:41:24;;;;;;;45.40;29.60;;;8.20;99.90;;;;;;2612994;54;20407;-72
2022/09/28 04:47:11;;;;;;;44.57;27.10;;;8.30;99.90;;;;;;2612480;54;20394;-70
2022/09/28 04:53:02;;;;;;;38.80;25.17;;;8.20;99.90;;;;;;2612351;54;20683;-70
2022/09/28 04:58:50;;;;;;;50.93;26.57;;;8.30;99.90;;;;;;2613430;54;20390;-69
2022/09/28 05:04:38;;;;;;;40.20;25.23;;;8.30;99.90;;;;;;2613771;54;20155;-68
2022/09/28 05:10:26;;;;;;;39.30;25.17;;;8.30;99.90;;;;;;2614432;54;20130;-69
2022/09/28 05:16:14;;;;;;;41.65;26.42;;;8.40;99.90;;;;;;2614212;54;20134;-71
2022/09/28 05:22:03;;;;;;;45.27;28.63;;;8.40;99.90;;;;;;2615133;54;20676;-71
2022/09/28 05:31:38;;;;;;;45.97;30.10;;;8.40;99.90;;;;;;2615291;54;20531;-70
2022/09/28 05:37:25;;;;;;;37.40;26.75;;;8.30;99.90;;;;;;2615115;54;20414;-71
2022/09/28 05:43:13;;;;;;;38.83;28.17;;;8.30;99.90;;;;;;2615186;54;20119;-69
2022/09/28 05:49:01;;;;;;;46.33;31.60;;;8.40;99.90;;;;;;2615436;54;20135;-68
2022/09/28 05:54:48;;;;;;;44.83;28.83;;;8.40;99.90;;;;;;2615520;39;20743;-70
2022/09/28 06:00:36;;;;;;;42.73;31.50;;;8.50;99.90;;;;;;2615341;47;20149;-73
2022/09/28 06:06:24;;;;;;;44.77;31.77;;;8.50;99.90;;;;;;2614408;54;20414;-69
2022/09/28 06:12:12;;;;;;;49.93;31.70;;;8.60;99.90;;;;;;2615200;39;20534;-69
2022/09/28 06:18:02;;;;;;;48.57;33.20;;;8.70;99.90;;;;;;2614009;54;20390;-69
2022/09/28 06:23:50;;;;;;;43.03;31.65;;;8.70;99.90;;;;;;2614845;54;20976;-70
2022/09/28 06:27:05;;;;;;;44.43;32.53;;;8.70;99.90;;;;;;2615090;39;20524;-70
2022/09/28 06:29:30;;;;;;;45.37;32.40;;;8.70;99.90;;;;;;2615203;54;20160;-68
2022/09/28 06:35:18;;;;;;;50.50;32.70;;;8.80;99.90;;;;;;2615129;54;20221;-69
2022/09/28 06:41:06;;;;;;;50.30;31.50;;;8.80;99.90;;;;;;2615246;54;20176;-70
2022/09/28 06:46:57;;;;;;;48.87;32.97;;;8.90;99.90;;;;;;2615092;54;20158;-68
2022/09/28 06:52:45;;;;;;;51.40;33.83;;;8.90;99.90;;;;;;2614599;54;20417;-69
2022/09/28 06:58:32;;;;;;;55.40;32.07;;;8.90;99.90;;;;;;2614799;54;20245;-69
2022/09/28 07:04:20;;;;;;;48.83;34.08;;;8.90;99.90;;;;;;2614890;54;20134;-69
2022/09/28 07:10:10;;;;;;;51.87;32.80;;;8.90;99.90;;;;;;2615272;54;20138;-69
2022/09/28 07:16:00;;;;;;;47.25;33.70;;;8.90;99.90;;;;;;2615014;54;20405;-70
2022/09/28 07:21:50;;;;;;;45.80;30.23;;;8.90;99.90;;;;;;2615663;54;20363;-70
2022/09/28 07:24:53;;;;;;;49.00;32.50;;;8.90;99.90;;;;;;2616033;54;20502;-70
2022/09/28 07:31:36;;;;;;;46.53;32.73;;;9.00;99.90;;;;;;2615721;54;20407;-73
2022/09/28 07:37:25;;;;;;;44.63;30.40;;;9.00;99.90;;;;;;2615503;54;20407;-70
2022/09/28 07:43:13;;;;;;;45.45;32.80;;;9.10;99.90;;;;;;2615597;54;20387;-69
2022/09/28 07:49:04;;;;;;;47.70;31.83;;;9.10;99.90;;;;;;2615818;54;20778;-69
2022/09/28 07:54:52;;;;;;;48.07;31.67;;;9.20;99.90;;;;;;2615964;54;20425;-69
2022/09/28 08:00:39;;;;;;;41.80;31.10;;;9.10;99.90;;;;;;2615962;54;20132;-68
2022/09/28 08:06:29;;;;;;;40.13;29.40;;;9.20;99.90;;;;;;2615799;54;20153;-69
2022/09/28 08:12:20;;;;;;;40.70;27.80;;;9.30;99.90;;;;;;2615587;54;20395;-68
2022/09/28 08:18:07;;;;;;;35.53;27.10;;;9.20;99.90;;;;;;2614655;54;20561;-68
2022/09/28 08:23:55;;;;;;;37.73;28.00;;;9.30;99.90;;;;;;2615283;54;20128;-70
2022/09/28 08:27:06;;;;;;;40.33;29.33;;;9.30;99.90;;;;;;2615538;54;20419;-70
2022/09/28 08:29:32;;;;;;;40.40;28.60;;;9.40;99.90;;;;;;2615580;54;20526;-69
2022/09/28 08:35:19;;;;;;;39.73;27.83;;;9.50;99.90;;;;;;2614280;54;20221;-69
2022/09/28 09:20:15;;;;;;;37.20;24.70;;;9.80;99.90;;;;;;2614628;54;20393;-69
2022/09/28 09:43:40;;;;;;;27.80;21.73;;;11.00;99.90;;;;;;2613920;54;20519;-73
2022/09/28 09:49:32;;;;;;;28.40;21.87;;;10.90;99.90;;;;;;2611955;54;20394;-69
2022/09/28 10:01:47;;;;;;;18.77;16.00;;;13.20;99.90;;;;;;2611182;54;20470;-71
2022/09/28 10:07:40;;;;;;;9.60;7.93;;;12.70;99.90;;;;;;2612098;54;20142;-70
2022/09/28 10:13:28;;;;;;;17.57;10.17;;;12.90;99.90;;;;;;2615606;39;20450;-69
2022/09/28 10:19:18;;;;;;;13.37;12.00;;;12.30;99.90;;;;;;2615393;54;20410;-70
2022/09/28 10:25:07;;;;;;;14.67;12.97;;;12.30;99.90;;;;;;2615432;54;20378;-71
2022/09/28 10:34:24;;;;;;;20.30;14.87;;;11.80;99.90;;;;;;2615424;54;20434;-70
2022/09/28 10:40:30;;;;;;;18.47;16.53;;;11.50;99.90;;;;;;2614746;54;20409;-70
2022/09/28 10:46:22;;;;;;;19.60;15.73;;;11.50;99.90;;;;;;2615124;54;20491;-70
2022/09/28 10:52:28;;;;;;;18.20;16.08;;;12.10;99.90;;;;;;2615813;54;20389;-70
2022/09/28 11:04:56;;;;;;;14.67;12.80;;;11.80;99.90;;;;;;2615869;54;20379;-71
2022/09/28 11:10:43;;;;;;;13.57;12.27;;;11.80;99.90;;;;;;2615779;46;20134;-70
2022/09/28 11:16:33;;;;;;;13.77;12.37;;;12.20;99.90;;;;;;2615541;54;20387;-70
2022/09/28 11:22:32;;;;;;;12.03;10.80;;;13.20;99.90;;;;;;2615556;54;20378;-71
2022/09/28 11:28:29;;;;;;;10.68;9.77;;;13.80;99.90;;;;;;2615970;54;20394;-71
2022/09/28 11:48:40;;;;;;;9.57;8.77;;;14.20;99.90;;;;;;2613925;54;20415;-73
2022/09/28 12:37:30;;;;;;;7.20;6.70;;;13.20;99.90;;;;;;2614575;54;20383;-71
2022/09/28 13:22:43;;;;;;;7.87;7.03;;;14.30;99.90;;;;;;2615863;39;20535;-71
2022/09/28 13:25:46;;;;;;;6.63;6.03;;;13.90;99.90;;;;;;2614790;54;20424;-70
2022/09/28 13:28:15;;;;;;;7.77;7.10;;;13.90;99.90;;;;;;2614849;47;20495;-72
2022/09/28 13:37:34;;;;;;;6.50;5.90;;;14.60;99.90;;;;;;2613805;54;20980;-72
2022/09/28 13:49:47;;;;;;;4.97;4.47;;;16.40;88.20;;;;;;2615904;39;20733;-70
2022/09/28 13:55:38;;;;;;;6.37;5.80;;;17.40;60.60;;;;;;2615796;39;20759;-71
2022/09/28 14:14:47;;;;;;;6.50;5.97;;;14.50;80.40;;;;;;2613047;54;20529;-72
2022/09/28 14:20:35;;;;;;;6.25;5.53;;;14.30;93.10;;;;;;2614008;54;20977;-70
2022/09/28 14:32:57;;;;;;;6.90;6.40;;;13.80;99.90;;;;;;2614869;54;21420;-71
2022/09/28 14:45:02;;;;;;;6.23;5.70;;;13.20;99.90;;;;;;2614644;54;20423;-71
2022/09/28 14:50:50;;;;;;;7.90;7.20;;;13.10;99.90;;;;;;2613973;54;21181;-75
2022/09/28 14:56:39;;;;;;;7.60;6.90;;;12.90;99.90;;;;;;2614218;54;20398;-73
2022/09/28 15:02:31;;;;;;;6.97;6.37;;;12.70;99.90;;;;;;2614396;54;20166;-71
2022/09/28 15:08:20;;;;;;;7.10;6.60;;;12.60;99.90;;;;;;2614797;39;20751;-71
2022/09/28 15:14:10;;;;;;;6.97;6.27;;;12.40;99.90;;;;;;2616562;39;20776;-73
2022/09/28 15:26:35;;;;;;;9.03;7.23;;;12.20;99.90;;;;;;2615937;54;20390;-71
2022/09/28 15:32:25;;;;;;;6.83;6.20;;;12.00;99.90;;;;;;2615443;54;20158;-70
2022/09/28 15:38:18;;;;;;;8.13;7.40;;;12.00;99.90;;;;;;2616051;54;20456;-71
2022/09/28 15:41:33;;;;;;;7.63;6.93;;;11.80;99.90;;;;;;2615662;39;20793;-71
2022/09/28 15:47:27;;;;;;;8.27;7.60;;;11.90;99.90;;;;;;2614899;54;20532;-70
2022/09/28 15:53:17;;;;;;;6.30;5.70;;;11.80;99.90;;;;;;2616000;54;20391;-71
2022/09/28 16:18:38;;;;;;;5.07;4.67;;;11.70;99.90;;;;;;2614418;54;21130;-72
2022/09/28 16:24:29;;;;;;;5.53;4.90;;;11.60;99.90;;;;;;2614399;39;20783;-73
2022/09/28 16:30:28;;;;;;;5.85;5.25;;;11.60;99.90;;;;;;2613860;54;20471;-71
2022/09/28 16:36:16;;;;;;;5.67;4.87;;;11.60;99.90;;;;;;2614080;54;20415;-72
2022/09/28 16:42:06;;;;;;;6.87;5.63;;;11.50;99.90;;;;;;2613971;54;20238;-73
2022/09/28 16:47:56;;;;;;;4.10;3.63;;;11.40;99.90;;;;;;2614095;54;20443;-72
2022/09/28 16:59:51;;;;;;;2.60;2.30;;;11.20;99.90;;;;;;2615761;54;20729;-71
2022/09/28 17:05:38;;;;;;;2.22;1.95;;;11.10;99.90;;;;;;2615399;54;20126;-71
2022/09/28 17:11:26;;;;;;;3.40;2.10;;;11.10;99.90;;;;;;2614830;39;20626;-73
2022/09/28 17:17:14;;;;;;;8.67;3.00;;;11.00;99.90;;;;;;2616167;54;20635;-71
2022/09/28 17:23:02;;;;;;;2.80;2.50;;;10.80;99.90;;;;;;2613973;54;20118;-71
2022/09/28 17:28:49;;;;;;;3.47;2.30;;;10.70;99.90;;;;;;2614616;54;20130;-72
2022/09/28 17:34:37;;;;;;;3.13;2.23;;;10.60;99.90;;;;;;2615266;54;20138;-72
2022/09/28 17:40:28;;;;;;;3.87;2.73;;;10.40;99.90;;;;;;2615828;54;20138;-73
2022/09/28 17:52:41;;;;;;;2.90;2.60;;;10.40;99.90;;;;;;2612801;54;20444;-70
2022/09/28 17:58:28;;;;;;;4.77;4.27;;;10.40;99.90;;;;;;2613514;54;20139;-70
2022/09/28 18:04:16;;;;;;;6.20;4.20;;;10.20;99.90;;;;;;2613422;54;20125;-73
2022/09/28 18:10:06;;;;;;;6.60;5.80;;;10.20;99.90;;;;;;2613832;54;20451;-71
2022/09/28 18:15:54;;;;;;;9.95;4.82;;;10.20;99.90;;;;;;2613862;54;20379;-71
2022/09/28 18:21:42;;;;;;;9.83;8.53;;;10.10;99.90;;;;;;2613836;54;20523;-72
2022/09/28 18:27:30;;;;;;;10.40;7.10;;;10.00;99.90;;;;;;2615407;54;20169;-71
2022/09/28 18:33:17;;;;;;;8.50;6.43;;;9.70;99.90;;;;;;2614624;54;20964;-73
2022/09/28 18:39:05;;;;;;;7.07;6.22;;;9.60;99.90;;;;;;2615181;54;20154;-72
2022/09/28 18:48:20;;;;;;;10.40;6.00;;;9.60;99.90;;;;;;2614084;54;20675;-71
2022/09/28 18:54:08;;;;;;;10.53;6.83;;;9.40;99.90;;;;;;2613686;54;20958;-72
2022/09/28 18:59:56;;;;;;;10.80;6.10;;;9.30;99.90;;;;;;2613768;54;20171;-71
2022/09/28 19:05:45;;;;;;;7.23;6.53;;;9.30;99.90;;;;;;2614694;54;20172;-71
2022/09/28 19:11:33;;;;;;;21.63;16.37;;;9.20;99.90;;;;;;2615543;39;20773;-72
2022/09/28 19:17:20;;;;;;;14.90;9.20;;;9.10;99.90;;;;;;2616025;54;20406;-71
2022/09/28 19:23:08;;;;;;;8.40;6.30;;;9.10;99.90;;;;;;2615754;54;20149;-72
2022/09/28 19:26:11;;;;;;;7.87;7.13;;;9.00;99.90;;;;;;2612987;54;20162;-70
2022/09/28 19:28:37;;;;;;;8.23;6.70;;;9.00;99.90;;;;;;2614415;54;20265;-73
2022/09/28 19:34:28;;;;;;;7.70;6.90;;;8.90;99.90;;;;;;2613765;54;20387;-71
2022/09/28 19:40:16;;;;;;;7.83;6.97;;;8.90;99.90;;;;;;2614591;54;20394;-71
2022/09/28 19:46:05;;;;;;;8.87;7.50;;;8.80;99.90;;;;;;2614438;46;20450;-70
2022/09/28 19:51:55;;;;;;;9.83;8.20;;;9.00;99.90;;;;;;2615522;54;20943;-70
2022/09/28 19:57:46;;;;;;;11.68;8.55;;;8.70;99.90;;;;;;2615871;54;20391;-71
2022/09/28 20:03:34;;;;;;;11.07;8.80;;;8.60;99.90;;;;;;2615257;54;20403;-70
2022/09/28 20:09:22;;;;;;;12.85;8.23;;;8.50;99.90;;;;;;2615527;54;20695;-72
2022/09/28 20:15:10;;;;;;;11.10;8.77;;;8.40;99.90;;;;;;2615538;54;20146;-71
2022/09/28 20:21:05;;;;;;;10.93;8.30;;;8.00;99.90;;;;;;2614348;54;20386;-72
2022/09/28 20:26:53;;;;;;;11.80;7.80;;;8.10;99.90;;;;;;2615476;47;20418;-71
2022/09/28 20:32:40;;;;;;;8.50;7.70;;;8.00;99.90;;;;;;2616247;54;20132;-71
2022/09/28 20:38:29;;;;;;;10.63;6.80;;;7.90;99.90;;;;;;2615703;54;20643;-71
2022/09/28 20:48:17;;;;;;;10.23;9.23;;;7.60;99.90;;;;;;2615702;54;20970;-71
2022/09/28 20:54:04;;;;;;;10.53;8.77;;;7.50;99.90;;;;;;2615989;39;20810;-70
2022/09/28 20:59:52;;;;;;;10.17;8.83;;;7.30;99.90;;;;;;2615696;46;20262;-71
2022/09/28 21:05:40;;;;;;;10.27;9.30;;;7.20;99.90;;;;;;2615939;54;20230;-71
2022/09/28 21:11:28;;;;;;;13.60;9.60;;;7.30;99.90;;;;;;2615707;54;20178;-70
2022/09/28 21:17:16;;;;;;;12.00;9.77;;;7.20;99.90;;;;;;2615840;54;20390;-72
2022/09/28 21:23:04;;;;;;;13.55;10.90;;;7.20;99.90;;;;;;2614448;54;20126;-73
2022/09/28 21:28:58;;;;;;;15.33;12.83;;;7.10;99.90;;;;;;2614718;54;20134;-70
2022/09/28 21:34:46;;;;;;;16.27;12.63;;;7.10;99.90;;;;;;2615880;39;20770;-72
2022/09/28 21:40:34;;;;;;;13.10;11.40;;;7.30;99.90;;;;;;2615657;46;20145;-70
2022/09/28 21:43:48;;;;;;;16.67;12.83;;;7.30;99.90;;;;;;2615221;54;20419;-72
2022/09/28 21:46:14;;;;;;;17.93;11.73;;;7.50;99.90;;;;;;2615000;54;20251;-71
2022/09/28 21:52:02;;;;;;;18.02;12.68;;;7.60;99.90;;;;;;2615409;54;20392;-72
2022/09/28 21:57:50;;;;;;;14.73;12.80;;;7.70;99.90;;;;;;2615564;54;20154;-70
2022/09/28 22:03:37;;;;;;;16.73;13.83;;;7.70;99.90;;;;;;2615863;39;20733;-71
2022/09/28 22:09:26;;;;;;;17.80;12.67;;;7.60;99.90;;;;;;2615519;39;20612;-71
2022/09/28 22:15:13;;;;;;;18.00;14.17;;;7.50;99.90;;;;;;2615297;54;20147;-72
2022/09/28 22:27:11;;;;;;;22.75;16.42;;;7.00;99.90;;;;;;2615519;54;20395;-71
2022/09/28 22:32:59;;;;;;;18.60;14.83;;;7.30;99.90;;;;;;2613981;54;20399;-71
2022/09/28 22:38:47;;;;;;;16.77;13.30;;;7.20;99.90;;;;;;2615221;54;20146;-72
2022/09/28 22:48:22;;;;;;;19.67;14.27;;;6.80;99.90;;;;;;2616213;54;20371;-71
2022/09/28 22:54:15;;;;;;;17.20;14.30;;;6.80;99.90;;;;;;2614851;54;20396;-71
2022/09/28 23:00:03;;;;;;;24.33;15.63;;;6.70;99.90;;;;;;2615932;54;20919;-72
2022/09/28 23:05:54;;;;;;;20.63;15.43;;;6.60;99.90;;;;;;2615859;54;20939;-70
2022/09/28 23:11:42;;;;;;;23.70;16.47;;;6.80;99.90;;;;;;2615763;54;20949;-72
2022/09/28 23:14:46;;;;;;;21.00;16.40;;;6.50;99.90;;;;;;2615369;54;20499;-72
2022/09/28 23:17:11;;;;;;;21.93;16.20;;;6.50;99.90;;;;;;2616053;54;20162;-71
2022/09/28 23:22:58;;;;;;;25.13;15.80;;;6.50;99.90;;;;;;2616340;54;20123;-70
2022/09/28 23:28:47;;;;;;;24.97;17.10;;;6.40;99.90;;;;;;2616323;54;20123;-71
2022/09/28 23:34:34;;;;;;;19.23;15.10;;;6.30;99.90;;;;;;2615881;54;20371;-71
2022/09/28 23:40:22;;;;;;;25.80;16.80;;;6.20;99.90;;;;;;2616800;39;20535;-72
2022/09/28 23:46:10;;;;;;;20.87;16.13;;;6.20;99.90;;;;;;2615999;54;20186;-71
2022/09/28 23:51:57;;;;;;;26.97;19.03;;;6.10;99.90;;;;;;2616533;54;20169;-70
2022/09/28 23:57:45;;;;;;;31.40;18.33;;;6.60;99.90;;;;;;2615913;54;20174;-72
